createdAt,value
2018-12-02T00:00:57.718Z,12.00
2018-12-02T00:03:27.530Z,12.00
2018-12-02T00:05:56.160Z,12.00
2018-12-02T00:08:24.695Z,12.00
2018-12-02T00:10:59.045Z,12.00
2018-12-02T00:13:33.442Z,12.00
2018-12-02T00:16:01.926Z,12.00
2018-12-02T00:18:33.489Z,12.00
2018-12-02T00:21:01.968Z,12.00
2018-12-02T00:23:30.429Z,12.00
2018-12-02T00:26:10.740Z,12.00
2018-12-02T00:28:39.517Z,12.00
2018-12-02T00:31:09.496Z,12.00
2018-12-02T00:33:38.108Z,12.00
2018-12-02T00:36:09.713Z,12.00
2018-12-02T00:38:50.347Z,12.00
2018-12-02T00:41:18.929Z,12.00
2018-12-02T00:43:57.094Z,12.00
2018-12-02T00:46:38.348Z,12.00
2018-12-02T00:49:06.877Z,12.00
2018-12-02T00:51:39.477Z,12.00
2018-12-02T00:54:07.933Z,12.00
2018-12-02T00:56:36.494Z,11.90
2018-12-02T00:59:11.203Z,12.00
2018-12-02T01:01:39.729Z,12.00
2018-12-02T01:04:09.491Z,11.90
2018-12-02T01:06:45.356Z,12.00
2018-12-02T01:12:20.181Z,12.00
2018-12-02T01:17:56.373Z,11.90
2018-12-02T01:20:44.366Z,12.00
2018-12-02T01:23:20.865Z,11.90
2018-12-02T01:26:02.395Z,11.90
2018-12-02T01:28:33.566Z,11.90
2018-12-02T01:31:08.993Z,11.90
2018-12-02T01:33:37.616Z,11.90
2018-12-02T01:36:06.333Z,11.90
2018-12-02T01:38:34.781Z,11.90
2018-12-02T01:41:03.402Z,11.90
2018-12-02T01:43:33.656Z,11.90
2018-12-02T01:46:03.658Z,11.90
2018-12-02T01:48:33.464Z,11.90
2018-12-02T01:51:03.598Z,11.90
2018-12-02T01:53:39.020Z,11.90
2018-12-02T01:56:11.033Z,11.90
2018-12-02T02:01:07.757Z,11.90
2018-12-02T02:03:36.339Z,11.90
2018-12-02T02:06:04.772Z,11.90
2018-12-02T02:08:38.914Z,11.90
2018-12-02T02:11:07.553Z,11.90
2018-12-02T02:13:35.997Z,11.90
2018-12-02T02:16:15.006Z,11.90
2018-12-02T02:18:50.900Z,11.90
2018-12-02T02:21:27.018Z,11.90
2018-12-02T02:23:58.733Z,11.90
2018-12-02T02:26:27.612Z,11.90
2018-12-02T02:28:56.069Z,11.90
2018-12-02T02:31:27.952Z,11.90
2018-12-02T02:33:56.516Z,11.90
2018-12-02T02:36:27.661Z,11.90
2018-12-02T02:38:57.600Z,11.90
2018-12-02T02:41:27.714Z,11.90
2018-12-02T02:43:56.128Z,11.90
2018-12-02T02:46:24.671Z,11.90
2018-12-02T02:48:57.654Z,11.90
2018-12-02T02:51:26.137Z,11.90
2018-12-02T02:53:57.683Z,11.90
2018-12-02T02:56:27.655Z,11.90
2018-12-02T02:58:57.701Z,11.90
2018-12-02T03:01:27.623Z,11.90
2018-12-02T03:03:56.125Z,11.90
2018-12-02T03:06:27.685Z,11.90
2018-12-02T03:08:57.570Z,11.90
2018-12-02T03:11:26.234Z,11.90
2018-12-02T03:13:57.592Z,11.90
2018-12-02T03:16:26.021Z,11.90
2018-12-02T03:18:54.706Z,11.90
2018-12-02T03:21:23.254Z,11.90
2018-12-02T03:23:57.100Z,11.90
2018-12-02T03:26:27.617Z,11.90
2018-12-02T03:28:56.058Z,11.80
2018-12-02T03:31:24.542Z,11.90
2018-12-02T03:33:57.549Z,11.80
2018-12-02T03:36:25.965Z,11.90
2018-12-02T03:38:54.605Z,11.90
2018-12-02T03:41:23.038Z,11.80
2018-12-02T03:43:51.461Z,11.80
2018-12-02T03:46:21.589Z,11.90
2018-12-02T03:48:51.691Z,11.80
2018-12-02T03:51:20.225Z,11.80
2018-12-02T03:54:02.356Z,11.80
2018-12-02T03:56:30.892Z,11.80
2018-12-02T04:02:09.105Z,11.80
2018-12-02T04:04:50.345Z,11.80
2018-12-02T04:07:27.077Z,11.80
2018-12-02T04:09:58.624Z,11.80
2018-12-02T04:15:22.651Z,11.80
2018-12-02T04:18:02.939Z,11.80
2018-12-02T04:20:39.045Z,11.80
2018-12-02T04:23:20.289Z,11.90
2018-12-02T04:26:07.623Z,11.80
2018-12-02T04:28:36.192Z,11.90
2018-12-02T04:31:05.173Z,11.80
2018-12-02T04:33:50.370Z,11.80
2018-12-02T04:36:21.909Z,11.80
2018-12-02T04:42:07.514Z,11.80
2018-12-02T04:44:36.017Z,11.80
2018-12-02T04:47:04.609Z,11.80
2018-12-02T04:49:33.125Z,11.80
2018-12-02T04:55:13.546Z,11.80
2018-12-02T04:57:45.609Z,11.80
2018-12-02T05:03:20.424Z,11.80
2018-12-02T05:05:51.618Z,11.80
2018-12-02T05:08:43.557Z,11.80
2018-12-02T05:11:15.656Z,11.80
2018-12-02T05:19:30.041Z,11.90
2018-12-02T05:24:51.332Z,11.80
2018-12-02T05:27:38.426Z,11.80
2018-12-02T05:30:15.528Z,11.80
2018-12-02T05:32:56.465Z,11.80
2018-12-02T05:35:33.176Z,11.80
2018-12-02T05:40:58.958Z,11.80
2018-12-02T05:43:27.498Z,11.80
2018-12-02T05:46:14.478Z,11.80
2018-12-02T05:51:45.861Z,11.90
2018-12-02T05:54:21.001Z,11.90
2018-12-02T05:56:57.237Z,11.80
2018-12-02T05:59:25.772Z,11.80
2018-12-02T06:01:54.254Z,11.80
2018-12-02T06:07:21.132Z,11.80
2018-12-02T06:09:53.246Z,11.80
2018-12-02T06:12:40.091Z,11.80
2018-12-02T06:15:12.458Z,11.80
2018-12-02T06:20:34.305Z,11.80
2018-12-02T06:23:20.367Z,11.80
2018-12-02T06:28:42.001Z,11.80
2018-12-02T06:31:16.199Z,11.80
2018-12-02T06:36:50.617Z,11.80
2018-12-02T06:42:11.953Z,11.80
2018-12-02T06:44:56.379Z,11.80
2018-12-02T06:47:27.755Z,11.80
2018-12-02T06:49:56.376Z,11.80
2018-12-02T06:52:24.932Z,11.80
2018-12-02T06:55:03.216Z,11.80
2018-12-02T06:57:39.054Z,11.80
2018-12-02T07:00:21.041Z,11.80
2018-12-02T07:05:43.037Z,11.80
2018-12-02T07:11:04.527Z,11.80
2018-12-02T07:19:21.326Z,12.10
2018-12-02T07:21:52.414Z,12.10
2018-12-02T07:27:21.236Z,12.60
2018-12-02T07:35:35.038Z,13.30
2018-12-02T07:49:35.105Z,14.10
2018-12-02T07:52:09.190Z,14.10
2018-12-02T07:55:01.666Z,14.20
2018-12-02T08:03:16.817Z,14.30
2018-12-02T08:05:45.257Z,14.40
2018-12-02T08:11:07.006Z,14.60
2018-12-02T08:19:21.416Z,14.60
2018-12-02T08:24:51.117Z,14.80
2018-12-02T08:30:18.401Z,14.90
2018-12-02T08:35:40.149Z,15.00
2018-12-02T08:38:10.774Z,15.00
2018-12-02T08:43:44.673Z,15.00
2018-12-02T08:46:16.355Z,15.10
2018-12-02T08:48:44.801Z,15.30
2018-12-02T08:51:17.624Z,15.20
2018-12-02T08:53:45.801Z,15.20
2018-12-02T08:56:15.976Z,15.30
2018-12-02T08:58:45.833Z,15.30
2018-12-02T09:01:14.493Z,15.30
2018-12-02T09:03:43.001Z,15.30
2018-12-02T09:06:11.643Z,15.40
2018-12-02T09:08:40.166Z,15.50
2018-12-02T09:11:15.215Z,15.40
2018-12-02T09:13:46.736Z,15.50
2018-12-02T09:16:15.917Z,15.50
2018-12-02T09:18:45.775Z,15.50
2018-12-02T09:21:14.294Z,15.40
2018-12-02T09:24:01.669Z,15.50
2018-12-02T09:29:22.908Z,15.50
2018-12-02T09:31:51.407Z,15.50
2018-12-02T09:34:19.808Z,15.50
2018-12-02T09:36:58.039Z,15.50
2018-12-02T09:39:27.902Z,15.50
2018-12-02T09:42:03.337Z,15.40
2018-12-02T09:47:28.855Z,15.50
2018-12-02T09:49:57.350Z,15.60
2018-12-02T09:52:25.917Z,15.60
2018-12-02T09:57:57.606Z,15.80
2018-12-02T10:00:26.028Z,15.70
2018-12-02T10:03:13.621Z,15.70
2018-12-02T10:05:42.217Z,15.80
2018-12-02T10:08:10.734Z,15.70
2018-12-02T10:10:39.361Z,15.70
2018-12-02T10:13:16.247Z,15.80
2018-12-02T10:21:30.857Z,15.80
2018-12-02T10:26:51.997Z,16.00
2018-12-02T10:29:39.269Z,15.90
2018-12-02T10:32:15.348Z,15.90
2018-12-02T10:35:07.786Z,16.00
2018-12-02T10:37:40.009Z,16.00
2018-12-02T10:40:20.707Z,16.00
2018-12-02T10:45:56.681Z,15.90
2018-12-02T10:51:17.968Z,16.00
2018-12-02T10:53:46.478Z,16.00
2018-12-02T10:56:15.967Z,16.00
2018-12-02T10:58:44.432Z,16.00
2018-12-02T11:04:06.715Z,16.20
2018-12-02T11:06:36.327Z,16.10
2018-12-02T11:09:06.265Z,16.10
2018-12-02T11:11:40.014Z,16.30
2018-12-02T11:14:08.497Z,16.20
2018-12-02T11:16:40.067Z,16.20
2018-12-02T11:19:21.394Z,16.20
2018-12-02T11:21:50.113Z,16.40
2018-12-02T11:30:07.557Z,16.40
2018-12-02T11:32:50.586Z,16.40
2018-12-02T11:35:19.430Z,16.40
2018-12-02T11:37:52.087Z,16.30
2018-12-02T11:43:16.069Z,16.40
2018-12-02T11:57:17.793Z,16.50
2018-12-02T11:59:57.459Z,16.50
2018-12-02T12:02:26.041Z,16.50
2018-12-02T12:07:48.397Z,16.50
2018-12-02T12:10:27.858Z,16.50
2018-12-02T12:15:49.479Z,16.40
2018-12-02T12:18:22.082Z,16.70
2018-12-02T12:20:50.675Z,16.60
2018-12-02T12:23:22.236Z,16.60
2018-12-02T12:25:50.944Z,16.50
2018-12-02T12:28:37.805Z,16.60
2018-12-02T12:31:06.357Z,16.60
2018-12-02T12:33:34.899Z,16.60
2018-12-02T12:36:25.940Z,16.60
2018-12-02T12:38:54.548Z,16.60
2018-12-02T12:41:23.050Z,16.50
2018-12-02T12:46:45.028Z,16.50
2018-12-02T12:49:13.685Z,16.70
2018-12-02T12:54:55.741Z,16.60
2018-12-02T12:57:38.654Z,16.60
2018-12-02T13:00:12.580Z,16.80
2018-12-02T13:02:56.701Z,16.70
2018-12-02T13:08:18.716Z,16.80
2018-12-02T13:10:47.189Z,16.70
2018-12-02T13:13:16.056Z,16.60
2018-12-02T13:15:44.668Z,16.70
2018-12-02T13:18:13.242Z,16.80
2018-12-02T13:23:34.588Z,16.80
2018-12-02T13:26:03.064Z,16.80
2018-12-02T13:28:31.587Z,16.90
2018-12-02T13:33:53.349Z,16.80
2018-12-02T13:36:21.971Z,16.80
2018-12-02T13:38:50.475Z,16.90
2018-12-02T13:44:11.806Z,16.90
2018-12-02T13:47:01.836Z,16.90
2018-12-02T13:49:30.466Z,16.90
2018-12-02T13:52:09.357Z,16.80
2018-12-02T13:54:56.684Z,16.90
2018-12-02T13:57:25.141Z,17.00
2018-12-02T13:59:53.603Z,17.00
2018-12-02T14:02:22.150Z,16.90
2018-12-02T14:04:50.734Z,16.90
2018-12-02T14:07:19.202Z,17.10
2018-12-02T14:09:47.810Z,17.10
2018-12-02T14:12:22.014Z,17.00
2018-12-02T14:14:50.830Z,17.00
2018-12-02T14:17:21.715Z,17.10
2018-12-02T14:20:02.785Z,17.10
2018-12-02T14:22:31.318Z,17.00
2018-12-02T14:30:46.154Z,17.10
2018-12-02T14:33:27.182Z,17.00
2018-12-02T14:35:55.862Z,17.10
2018-12-02T14:38:24.470Z,17.30
2018-12-02T14:40:58.052Z,17.20
2018-12-02T14:46:38.710Z,17.10
2018-12-02T14:49:15.496Z,17.10
2018-12-02T14:51:43.935Z,17.10
2018-12-02T14:54:21.566Z,17.10
2018-12-02T14:56:57.377Z,17.20
2018-12-02T14:59:26.054Z,17.20
2018-12-02T15:01:58.003Z,17.10
2018-12-02T15:04:28.145Z,17.10
2018-12-02T15:07:03.559Z,17.20
2018-12-02T15:12:28.017Z,17.10
2018-12-02T15:15:08.726Z,17.10
2018-12-02T15:17:37.201Z,17.20
2018-12-02T15:20:14.120Z,17.20
2018-12-02T15:22:46.102Z,17.10
2018-12-02T15:25:14.927Z,17.20
2018-12-02T15:27:56.721Z,17.30
2018-12-02T15:30:25.203Z,17.30
2018-12-02T15:32:53.724Z,17.30
2018-12-02T15:35:28.208Z,17.30
2018-12-02T15:37:56.815Z,17.50
2018-12-02T15:40:44.887Z,17.40
2018-12-02T15:43:16.094Z,17.50
2018-12-02T15:45:46.222Z,17.60
2018-12-02T15:48:16.137Z,17.50
2018-12-02T15:50:50.415Z,17.50
2018-12-02T15:53:27.421Z,17.50
2018-12-02T15:56:19.942Z,17.80
2018-12-02T15:58:52.251Z,17.80
2018-12-02T16:01:27.473Z,17.70
2018-12-02T16:04:03.539Z,17.80
2018-12-02T16:06:34.078Z,17.80
2018-12-02T16:09:02.577Z,17.70
2018-12-02T16:11:39.635Z,17.70
2018-12-02T16:14:08.140Z,17.70
2018-12-02T16:16:40.135Z,17.70
2018-12-02T16:19:15.503Z,17.70
2018-12-02T16:24:50.956Z,17.80
2018-12-02T16:30:17.220Z,17.60
2018-12-02T16:32:50.322Z,17.40
2018-12-02T16:35:32.807Z,17.50
2018-12-02T16:38:10.126Z,17.50
2018-12-02T16:40:38.624Z,17.50
2018-12-02T16:43:08.030Z,17.40
2018-12-02T16:45:36.651Z,17.70
2018-12-02T16:48:11.321Z,17.80
2018-12-02T16:50:42.233Z,17.80
2018-12-02T16:56:08.784Z,17.90
2018-12-02T16:59:17.831Z,17.90
2018-12-02T17:01:48.465Z,17.90
2018-12-02T17:04:16.942Z,17.80
2018-12-02T17:06:45.433Z,17.90
2018-12-02T17:09:14.091Z,17.80
2018-12-02T17:11:43.251Z,17.80
2018-12-02T17:14:11.824Z,17.80
2018-12-02T17:16:46.290Z,17.80
2018-12-02T17:19:15.084Z,17.80
2018-12-02T17:21:56.865Z,17.80
2018-12-02T17:27:32.945Z,18.00
2018-12-02T17:30:01.527Z,17.90
2018-12-02T17:32:34.265Z,17.90
2018-12-02T17:35:02.977Z,18.00
2018-12-02T17:37:39.608Z,18.10
2018-12-02T17:40:17.696Z,18.10
2018-12-02T17:42:52.157Z,18.10
2018-12-02T17:45:22.281Z,18.20
2018-12-02T17:47:52.197Z,18.10
2018-12-02T17:50:22.325Z,18.10
2018-12-02T17:52:52.242Z,18.20
2018-12-02T17:55:20.921Z,18.30
2018-12-02T17:57:52.332Z,18.20
2018-12-02T18:00:23.701Z,18.30
2018-12-02T18:03:09.041Z,18.40
2018-12-02T18:05:39.915Z,18.50
2018-12-02T18:08:10.182Z,18.50
2018-12-02T18:13:32.106Z,18.50
2018-12-02T18:16:00.811Z,18.50
2018-12-02T18:18:34.160Z,18.40
2018-12-02T18:21:02.669Z,18.20
2018-12-02T18:23:34.268Z,18.10
2018-12-02T18:26:04.538Z,18.10
2018-12-02T18:28:34.258Z,17.90
2018-12-02T18:31:25.937Z,17.70
2018-12-02T18:34:03.540Z,17.40
2018-12-02T18:36:33.763Z,17.10
2018-12-02T18:39:07.141Z,16.90
2018-12-02T18:44:34.366Z,16.50
2018-12-02T18:47:03.041Z,16.40
2018-12-02T18:58:10.155Z,16.00
2018-12-02T19:00:46.609Z,15.90
2018-12-02T19:03:16.562Z,15.80
2018-12-02T19:05:45.324Z,15.80
2018-12-02T19:08:13.789Z,15.70
2018-12-02T19:10:49.944Z,15.70
2018-12-02T19:16:16.342Z,15.60
2018-12-02T19:18:51.648Z,15.50
2018-12-02T19:21:26.383Z,15.50
2018-12-02T19:23:59.161Z,15.40
2018-12-02T19:26:28.243Z,15.40
2018-12-02T19:29:03.701Z,15.30
2018-12-02T19:31:34.242Z,15.30
2018-12-02T19:34:02.797Z,15.30
2018-12-02T19:36:42.112Z,15.20
2018-12-02T19:39:16.270Z,15.20
2018-12-02T19:41:46.232Z,15.20
2018-12-02T19:47:07.534Z,15.10
2018-12-02T19:49:36.183Z,15.10
2018-12-02T19:52:04.698Z,15.10
2018-12-02T19:54:33.134Z,15.00
2018-12-02T19:57:01.642Z,15.00
2018-12-02T19:59:30.074Z,15.00
2018-12-02T20:02:04.366Z,15.00
2018-12-02T20:04:32.798Z,14.90
2018-12-02T20:07:01.241Z,14.90
2018-12-02T20:09:39.605Z,14.90
2018-12-02T20:12:08.114Z,14.90
2018-12-02T20:14:45.588Z,14.90
2018-12-02T20:17:16.330Z,14.80
2018-12-02T20:19:51.638Z,14.80
2018-12-02T20:22:20.075Z,14.80
2018-12-02T20:24:52.234Z,14.80
2018-12-02T20:27:20.724Z,14.80
2018-12-02T20:29:52.265Z,14.70
2018-12-02T20:32:20.730Z,14.70
2018-12-02T20:34:52.356Z,14.70
2018-12-02T20:37:22.213Z,14.70
2018-12-02T20:39:50.632Z,14.70
2018-12-02T20:42:19.185Z,14.70
2018-12-02T20:44:52.838Z,14.70
2018-12-02T20:47:22.279Z,14.60
2018-12-02T20:50:08.955Z,14.60
2018-12-02T20:52:40.341Z,14.60
2018-12-02T20:55:11.155Z,14.60
2018-12-02T20:57:40.397Z,14.60
2018-12-02T21:00:14.472Z,14.60
2018-12-02T21:02:50.029Z,14.50
2018-12-02T21:05:31.204Z,14.50
2018-12-02T21:10:58.303Z,14.50
2018-12-02T21:13:28.423Z,14.50
2018-12-02T21:16:03.589Z,14.50
2018-12-02T21:18:39.593Z,14.40
2018-12-02T21:21:08.179Z,14.40
2018-12-02T21:23:40.350Z,14.40
2018-12-02T21:26:15.764Z,14.40
2018-12-02T21:28:51.616Z,14.40
2018-12-02T21:31:20.122Z,14.40
2018-12-02T21:34:08.060Z,14.40
2018-12-02T21:39:29.183Z,14.40
2018-12-02T21:42:14.957Z,14.30
2018-12-02T21:44:51.724Z,14.30
2018-12-02T21:47:38.965Z,14.30
2018-12-02T21:53:20.072Z,14.20
2018-12-02T21:55:48.484Z,14.20
2018-12-02T21:58:17.039Z,14.20
2018-12-02T22:00:49.734Z,14.20
2018-12-02T22:03:18.297Z,14.20
2018-12-02T22:11:33.495Z,14.20
2018-12-02T22:14:02.011Z,14.20
2018-12-02T22:16:39.632Z,14.20
2018-12-02T22:19:08.156Z,14.10
2018-12-02T22:27:21.730Z,14.10
2018-12-02T22:29:50.169Z,14.10
2018-12-02T22:32:38.240Z,14.10
2018-12-02T22:35:26.103Z,14.10
2018-12-02T22:40:47.429Z,14.00
2018-12-02T22:43:33.076Z,14.00
2018-12-02T22:48:55.045Z,14.00
2018-12-02T22:51:23.522Z,14.00
2018-12-02T22:59:38.555Z,14.00
2018-12-02T23:02:17.483Z,14.00
2018-12-02T23:04:46.014Z,14.00
2018-12-02T23:13:00.953Z,14.00
2018-12-02T23:15:29.433Z,13.90
2018-12-02T23:18:11.318Z,13.90
2018-12-02T23:20:39.910Z,13.90
2018-12-02T23:29:09.223Z,13.90
2018-12-02T23:31:37.741Z,13.90
2018-12-02T23:39:51.236Z,13.90
2018-12-02T23:42:19.788Z,13.90
2018-12-02T23:47:57.058Z,13.80
2018-12-02T23:50:25.486Z,13.80
